PWSweather.com
Personal Weather Stations
Station Observations
WUFYI1828
Erie, CO

Erie, CO

Lat: 40.03382874, Lon: -105.04464722

Elevation: 5212

Station Type:

High Low Average
Temperature 12.9°F-10.6°C -1.5°F-18.6°C 5.9°F-14.5°C
Dew Point 3.2°F-16.0°C -5.4°F-20.8°C 0.0°F-17.8°C
Winds 2.7 mph 4.3 kmh Calm Calm Calm ECalm E
Wind Gusts 4.5 mph7.2 kmh -- 1.0 mph1.6 kmh
Humidity 87% 61% 77%
Pressure 30.11 in1019.6 mb 29.89 in1012.2 mb -
Precipitation 0.00 in0.0 mm - -
Hour Temp Dew Point Humidity Winds Wind Gusts Pressure Precip Precip Rate Daily Precip Total
12:04 AM 3.9°F-15.6°C 0.7°F-17.4°C 86% Calm Calm -- 30.10 in1019.3 mb 0.00 in0.0 mm 0.00 in0.0 mm 0.00 in0.0 mm
12:09 AM 3.7°F-15.7°C 0.5°F-17.5°C 86% Calm Calm -- 30.10 in1019.3 mb 0.00 in0.0 mm 0.00 in0.0 mm 0.00 in0.0 mm
12:14 AM 3.6°F-15.8°C 0.3°F-17.6°C 86% Calm Calm -- 30.10 in1019.3 mb 0.00 in0.0 mm 0.00 in0.0 mm 0.00 in0.0 mm
12:19 AM 3.6°F-15.8°C 0.5°F-17.5°C 87% Calm Calm -- 30.10 in1019.3 mb 0.00 in0.0 mm 0.00 in0.0 mm 0.00 in0.0 mm
12:24 AM 3.4°F-15.9°C 0.1°F-17.7°C 86% Calm Calm -- 30.10 in1019.3 mb 0.00 in0.0 mm 0.00 in0.0 mm 0.00 in0.0 mm
12:29 AM 3.4°F-15.9°C 0.1°F-17.7°C 86% Calm Calm -- 30.10 in1019.3 mb 0.00 in0.0 mm 0.00 in0.0 mm 0.00 in0.0 mm
12:34 AM 3.4°F-15.9°C 0.1°F-17.7°C 86% Calm Calm -- 30.09 in1019.0 mb 0.00 in0.0 mm 0.00 in0.0 mm 0.00 in0.0 mm
12:39 AM 3.4°F-15.9°C 0.1°F-17.7°C 86% Calm Calm -- 30.10 in1019.3 mb 0.00 in0.0 mm 0.00 in0.0 mm 0.00 in0.0 mm
12:44 AM 3.6°F-15.8°C 0.3°F-17.6°C 86% Calm Calm -- 30.10 in1019.3 mb 0.00 in0.0 mm 0.00 in0.0 mm 0.00 in0.0 mm
12:49 AM 3.9°F-15.6°C 0.7°F-17.4°C 86% 0.2 mph E0.3 kmh E 1.1 mph1.8 kmh 30.10 in1019.3 mb 0.00 in0.0 mm 0.00 in0.0 mm 0.00 in0.0 mm
12:54 AM 4.3°F-15.4°C 0.7°F-17.4°C 85% 0.7 mph E1.1 kmh E 1.1 mph1.8 kmh 30.11 in1019.6 mb 0.00 in0.0 mm 0.00 in0.0 mm 0.00 in0.0 mm
01:04 AM 4.6°F-15.2°C 1.0°F-17.2°C 85% 0.4 mph E0.6 kmh E 1.1 mph1.8 kmh 30.10 in1019.3 mb 0.00 in0.0 mm 0.00 in0.0 mm 0.00 in0.0 mm
01:09 AM 4.8°F-15.1°C 1.2°F-17.1°C 85% Calm Calm -- 30.11 in1019.6 mb 0.00 in0.0 mm 0.00 in0.0 mm 0.00 in0.0 mm
01:14 AM 5.2°F-14.9°C 1.6°F-16.9°C 85% 1.1 mph E1.8 kmh E 1.1 mph1.8 kmh 30.11 in1019.6 mb 0.00 in0.0 mm 0.00 in0.0 mm 0.00 in0.0 mm
01:19 AM 5.2°F-14.9°C 1.6°F-16.9°C 85% 0.4 mph E0.6 kmh E 1.1 mph1.8 kmh 30.10 in1019.3 mb 0.00 in0.0 mm 0.00 in0.0 mm 0.00 in0.0 mm
01:24 AM 5.4°F-14.8°C 1.6°F-16.9°C 84% 0.9 mph E1.4 kmh E 1.1 mph1.8 kmh 30.10 in1019.3 mb 0.00 in0.0 mm 0.00 in0.0 mm 0.00 in0.0 mm
01:29 AM 5.4°F-14.8°C 1.2°F-17.1°C 83% 1.1 mph E1.8 kmh E 1.1 mph1.8 kmh 30.09 in1019.0 mb 0.00 in0.0 mm 0.00 in0.0 mm 0.00 in0.0 mm
01:34 AM 5.4°F-14.8°C 1.6°F-16.9°C 84% 0.2 mph E0.3 kmh E 1.1 mph1.8 kmh 30.10 in1019.3 mb 0.00 in0.0 mm 0.00 in0.0 mm 0.00 in0.0 mm
01:39 AM 5.5°F-14.7°C 1.8°F-16.8°C 84% 1.1 mph E1.8 kmh E 2.2 mph3.5 kmh 30.10 in1019.3 mb 0.00 in0.0 mm 0.00 in0.0 mm 0.00 in0.0 mm
01:44 AM 5.7°F-14.6°C 1.9°F-16.7°C 84% 1.3 mph E2.1 kmh E 2.2 mph3.5 kmh 30.10 in1019.3 mb 0.00 in0.0 mm 0.00 in0.0 mm 0.00 in0.0 mm
01:49 AM 5.7°F-14.6°C 1.9°F-16.7°C 84% 0.7 mph E1.1 kmh E 2.2 mph3.5 kmh 30.10 in1019.3 mb 0.00 in0.0 mm 0.00 in0.0 mm 0.00 in0.0 mm
01:54 AM 5.9°F-14.5°C 2.1°F-16.6°C 84% 0.7 mph E1.1 kmh E 1.1 mph1.8 kmh 30.09 in1019.0 mb 0.00 in0.0 mm 0.00 in0.0 mm 0.00 in0.0 mm
01:59 AM 5.9°F-14.5°C 2.3°F-16.5°C 85% 0.2 mph E0.3 kmh E 1.1 mph1.8 kmh 30.09 in1019.0 mb 0.00 in0.0 mm 0.00 in0.0 mm 0.00 in0.0 mm
02:04 AM 5.9°F-14.5°C 2.3°F-16.5°C 85% 1.3 mph E2.1 kmh E 2.2 mph3.5 kmh 30.09 in1019.0 mb 0.00 in0.0 mm 0.00 in0.0 mm 0.00 in0.0 mm
02:09 AM 5.9°F-14.5°C 2.3°F-16.5°C 85% Calm Calm -- 30.10 in1019.3 mb 0.00 in0.0 mm 0.00 in0.0 mm 0.00 in0.0 mm
02:14 AM 5.9°F-14.5°C 2.1°F-16.6°C 84% 1.8 mph ENE2.9 kmh ENE 2.2 mph3.5 kmh 30.09 in1019.0 mb 0.00 in0.0 mm 0.00 in0.0 mm 0.00 in0.0 mm
02:19 AM 5.5°F-14.7°C 1.4°F-17.0°C 83% Calm Calm -- 30.09 in1019.0 mb 0.00 in0.0 mm 0.00 in0.0 mm 0.00 in0.0 mm
02:24 AM 5.5°F-14.7°C 1.4°F-17.0°C 83% 0.9 mph ENE1.4 kmh ENE 3.4 mph5.5 kmh 30.09 in1019.0 mb 0.00 in0.0 mm 0.00 in0.0 mm 0.00 in0.0 mm
02:27 AM 5.4°F-14.8°C 0.9°F-17.3°C 82% 0.7 mph E1.1 kmh E 1.1 mph1.8 kmh 30.09 in1019.0 mb 0.00 in0.0 mm 0.00 in0.0 mm 0.00 in0.0 mm
02:34 AM 5.4°F-14.8°C 0.9°F-17.3°C 82% 0.2 mph E0.3 kmh E 1.1 mph1.8 kmh 30.10 in1019.3 mb 0.00 in0.0 mm 0.00 in0.0 mm 0.00 in0.0 mm
02:39 AM 5.4°F-14.8°C 0.9°F-17.3°C 82% 1.3 mph E2.1 kmh E 2.2 mph3.5 kmh 30.09 in1019.0 mb 0.00 in0.0 mm 0.00 in0.0 mm 0.00 in0.0 mm
02:44 AM 5.4°F-14.8°C 0.7°F-17.4°C 81% 2.7 mph E4.3 kmh E 3.4 mph5.5 kmh 30.09 in1019.0 mb 0.00 in0.0 mm 0.00 in0.0 mm 0.00 in0.0 mm
02:49 AM 5.4°F-14.8°C 0.9°F-17.3°C 82% 0.7 mph E1.1 kmh E 1.1 mph1.8 kmh 30.10 in1019.3 mb 0.00 in0.0 mm 0.00 in0.0 mm 0.00 in0.0 mm
02:54 AM 5.4°F-14.8°C 0.9°F-17.3°C 82% 0.2 mph E0.3 kmh E 1.1 mph1.8 kmh 30.09 in1019.0 mb 0.00 in0.0 mm 0.00 in0.0 mm 0.00 in0.0 mm
02:59 AM 5.2°F-14.9°C 0.7°F-17.4°C 82% 2.0 mph NE3.2 kmh NE 2.2 mph3.5 kmh 30.09 in1019.0 mb 0.00 in0.0 mm 0.00 in0.0 mm 0.00 in0.0 mm
03:04 AM 5.2°F-14.9°C 0.7°F-17.4°C 82% 2.7 mph NE4.3 kmh NE 3.4 mph5.5 kmh 30.09 in1019.0 mb 0.00 in0.0 mm 0.00 in0.0 mm 0.00 in0.0 mm
03:09 AM 5.2°F-14.9°C 1.0°F-17.2°C 83% 0.2 mph ENE0.3 kmh ENE 1.1 mph1.8 kmh 30.08 in1018.6 mb 0.00 in0.0 mm 0.00 in0.0 mm 0.00 in0.0 mm
03:14 AM 5.2°F-14.9°C 1.0°F-17.2°C 83% 1.3 mph E2.1 kmh E 2.2 mph3.5 kmh 30.09 in1019.0 mb 0.00 in0.0 mm 0.00 in0.0 mm 0.00 in0.0 mm
03:19 AM 5.2°F-14.9°C 1.0°F-17.2°C 83% 1.8 mph ENE2.9 kmh ENE 3.4 mph5.5 kmh 30.09 in1019.0 mb 0.00 in0.0 mm 0.00 in0.0 mm 0.00 in0.0 mm
03:24 AM 5.0°F-15.0°C 0.5°F-17.5°C 82% 1.8 mph ENE2.9 kmh ENE 2.2 mph3.5 kmh 30.09 in1019.0 mb 0.00 in0.0 mm 0.00 in0.0 mm 0.00 in0.0 mm
03:29 AM 5.0°F-15.0°C 0.5°F-17.5°C 82% 1.8 mph E2.9 kmh E 2.2 mph3.5 kmh 30.08 in1018.6 mb 0.00 in0.0 mm 0.00 in0.0 mm 0.00 in0.0 mm
03:34 AM 5.0°F-15.0°C 0.9°F-17.3°C 83% 0.7 mph E1.1 kmh E 1.1 mph1.8 kmh 30.09 in1019.0 mb 0.00 in0.0 mm 0.00 in0.0 mm 0.00 in0.0 mm
03:39 AM 5.2°F-14.9°C 1.0°F-17.2°C 83% 1.1 mph ENE1.8 kmh ENE 2.2 mph3.5 kmh 30.08 in1018.6 mb 0.00 in0.0 mm 0.00 in0.0 mm 0.00 in0.0 mm
03:44 AM 5.0°F-15.0°C 0.9°F-17.3°C 83% 2.5 mph E4.0 kmh E 3.4 mph5.5 kmh 30.08 in1018.6 mb 0.00 in0.0 mm 0.00 in0.0 mm 0.00 in0.0 mm
03:49 AM 5.0°F-15.0°C 0.9°F-17.3°C 83% 1.8 mph E2.9 kmh E 2.2 mph3.5 kmh 30.08 in1018.6 mb 0.00 in0.0 mm 0.00 in0.0 mm 0.00 in0.0 mm
03:54 AM 5.0°F-15.0°C 0.9°F-17.3°C 83% 1.3 mph E2.1 kmh E 2.2 mph3.5 kmh 30.09 in1019.0 mb 0.00 in0.0 mm 0.00 in0.0 mm 0.00 in0.0 mm
03:59 AM 4.8°F-15.1°C 1.0°F-17.2°C 84% 0.9 mph E1.4 kmh E 2.2 mph3.5 kmh 30.08 in1018.6 mb 0.00 in0.0 mm 0.00 in0.0 mm 0.00 in0.0 mm
04:04 AM 4.8°F-15.1°C 1.0°F-17.2°C 84% 0.2 mph E0.3 kmh E 1.1 mph1.8 kmh 30.08 in1018.6 mb 0.00 in0.0 mm 0.00 in0.0 mm 0.00 in0.0 mm
04:09 AM 4.6°F-15.2°C 0.9°F-17.3°C 84% 2.2 mph N3.5 kmh N 4.5 mph7.2 kmh 30.08 in1018.6 mb 0.00 in0.0 mm 0.00 in0.0 mm 0.00 in0.0 mm
04:14 AM 4.6°F-15.2°C 0.9°F-17.3°C 84% 0.7 mph SSE1.1 kmh SSE 1.1 mph1.8 kmh 30.08 in1018.6 mb 0.00 in0.0 mm 0.00 in0.0 mm 0.00 in0.0 mm
04:19 AM 4.6°F-15.2°C 0.9°F-17.3°C 84% 1.6 mph E2.6 kmh E 2.2 mph3.5 kmh 30.07 in1018.3 mb 0.00 in0.0 mm 0.00 in0.0 mm 0.00 in0.0 mm
04:24 AM 4.6°F-15.2°C 0.9°F-17.3°C 84% 1.8 mph E2.9 kmh E 2.2 mph3.5 kmh 30.07 in1018.3 mb 0.00 in0.0 mm 0.00 in0.0 mm 0.00 in0.0 mm
04:29 AM 4.6°F-15.2°C 0.9°F-17.3°C 84% 1.3 mph E2.1 kmh E 2.2 mph3.5 kmh 30.08 in1018.6 mb 0.00 in0.0 mm 0.00 in0.0 mm 0.00 in0.0 mm
04:34 AM 4.6°F-15.2°C 0.9°F-17.3°C 84% 0.9 mph E1.4 kmh E 2.2 mph3.5 kmh 30.07 in1018.3 mb 0.00 in0.0 mm 0.00 in0.0 mm 0.00 in0.0 mm
04:39 AM 4.6°F-15.2°C 0.5°F-17.5°C 83% 0.2 mph E0.3 kmh E 1.1 mph1.8 kmh 30.07 in1018.3 mb 0.00 in0.0 mm 0.00 in0.0 mm 0.00 in0.0 mm
04:44 AM 4.6°F-15.2°C 0.5°F-17.5°C 83% Calm Calm -- 30.07 in1018.3 mb 0.00 in0.0 mm 0.00 in0.0 mm 0.00 in0.0 mm
04:49 AM 4.8°F-15.1°C 1.0°F-17.2°C 84% Calm Calm -- 30.06 in1017.9 mb 0.00 in0.0 mm 0.00 in0.0 mm 0.00 in0.0 mm
04:54 AM 4.8°F-15.1°C 0.7°F-17.4°C 83% 0.2 mph E0.3 kmh E 1.1 mph1.8 kmh 30.06 in1017.9 mb 0.00 in0.0 mm 0.00 in0.0 mm 0.00 in0.0 mm
04:59 AM 4.8°F-15.1°C 0.7°F-17.4°C 83% 0.7 mph E1.1 kmh E 1.1 mph1.8 kmh 30.07 in1018.3 mb 0.00 in0.0 mm 0.00 in0.0 mm 0.00 in0.0 mm
05:04 AM 4.6°F-15.2°C 0.5°F-17.5°C 83% Calm Calm -- 30.06 in1017.9 mb 0.00 in0.0 mm 0.00 in0.0 mm 0.00 in0.0 mm
05:09 AM 4.5°F-15.3°C 0.0°F-17.8°C 82% 0.9 mph E1.4 kmh E 1.1 mph1.8 kmh 30.06 in1017.9 mb 0.00 in0.0 mm 0.00 in0.0 mm 0.00 in0.0 mm
05:14 AM 4.6°F-15.2°C 0.5°F-17.5°C 83% 0.7 mph E1.1 kmh E 1.1 mph1.8 kmh 30.06 in1017.9 mb 0.00 in0.0 mm 0.00 in0.0 mm 0.00 in0.0 mm
05:19 AM 4.6°F-15.2°C 0.1°F-17.7°C 82% 0.9 mph E1.4 kmh E 1.1 mph1.8 kmh 30.06 in1017.9 mb 0.00 in0.0 mm 0.00 in0.0 mm 0.00 in0.0 mm
05:24 AM 4.6°F-15.2°C 0.1°F-17.7°C 82% 1.1 mph E1.8 kmh E 1.1 mph1.8 kmh 30.05 in1017.6 mb 0.00 in0.0 mm 0.00 in0.0 mm 0.00 in0.0 mm
05:29 AM 4.5°F-15.3°C 0.0°F-17.8°C 82% 0.7 mph E1.1 kmh E 1.1 mph1.8 kmh 30.05 in1017.6 mb 0.00 in0.0 mm 0.00 in0.0 mm 0.00 in0.0 mm
05:34 AM 4.5°F-15.3°C 0.0°F-17.8°C 82% 1.3 mph E2.1 kmh E 2.2 mph3.5 kmh 30.05 in1017.6 mb 0.00 in0.0 mm 0.00 in0.0 mm 0.00 in0.0 mm
05:39 AM 4.3°F-15.4°C -0.2°F-17.9°C 82% 1.1 mph E1.8 kmh E 1.1 mph1.8 kmh 30.04 in1017.3 mb 0.00 in0.0 mm 0.00 in0.0 mm 0.00 in0.0 mm
05:44 AM 4.3°F-15.4°C -0.2°F-17.9°C 82% 0.9 mph E1.4 kmh E 2.2 mph3.5 kmh 30.04 in1017.3 mb 0.00 in0.0 mm 0.00 in0.0 mm 0.00 in0.0 mm
05:49 AM 4.3°F-15.4°C -0.2°F-17.9°C 82% 1.6 mph E2.6 kmh E 2.2 mph3.5 kmh 30.05 in1017.6 mb 0.00 in0.0 mm 0.00 in0.0 mm 0.00 in0.0 mm
05:54 AM 4.3°F-15.4°C -0.2°F-17.9°C 82% Calm Calm -- 30.05 in1017.6 mb 0.00 in0.0 mm 0.00 in0.0 mm 0.00 in0.0 mm
05:59 AM 4.5°F-15.3°C 0.0°F-17.8°C 82% 0.2 mph E0.3 kmh E 1.1 mph1.8 kmh 30.05 in1017.6 mb 0.00 in0.0 mm 0.00 in0.0 mm 0.00 in0.0 mm
06:04 AM 4.5°F-15.3°C 0.3°F-17.6°C 83% 0.4 mph E0.6 kmh E 1.1 mph1.8 kmh 30.05 in1017.6 mb 0.00 in0.0 mm 0.00 in0.0 mm 0.00 in0.0 mm
06:09 AM 4.5°F-15.3°C 0.0°F-17.8°C 82% 0.2 mph E0.3 kmh E 1.1 mph1.8 kmh 30.06 in1017.9 mb 0.00 in0.0 mm 0.00 in0.0 mm 0.00 in0.0 mm
06:14 AM 4.3°F-15.4°C 0.1°F-17.7°C 83% 0.2 mph E0.3 kmh E 1.1 mph1.8 kmh 30.05 in1017.6 mb 0.00 in0.0 mm 0.00 in0.0 mm 0.00 in0.0 mm
06:44 AM 4.3°F-15.4°C -0.2°F-17.9°C 82% Calm Calm -- 30.05 in1017.6 mb 0.00 in0.0 mm 0.00 in0.0 mm 0.00 in0.0 mm
06:54 AM 4.3°F-15.4°C -0.2°F-17.9°C 82% Calm Calm -- 30.06 in1017.9 mb 0.00 in0.0 mm 0.00 in0.0 mm 0.00 in0.0 mm
06:59 AM 4.1°F-15.5°C -0.4°F-18.0°C 82% 0.7 mph E1.1 kmh E 1.1 mph1.8 kmh 30.06 in1017.9 mb 0.00 in0.0 mm 0.00 in0.0 mm 0.00 in0.0 mm
07:04 AM 4.1°F-15.5°C -0.4°F-18.0°C 82% 0.7 mph E1.1 kmh E 1.1 mph1.8 kmh 30.05 in1017.6 mb 0.00 in0.0 mm 0.00 in0.0 mm 0.00 in0.0 mm
07:09 AM 3.9°F-15.6°C -0.6°F-18.1°C 82% 0.2 mph E0.3 kmh E 1.1 mph1.8 kmh 30.05 in1017.6 mb 0.00 in0.0 mm 0.00 in0.0 mm 0.00 in0.0 mm
07:14 AM 3.9°F-15.6°C -0.8°F-18.2°C 81% 0.2 mph E0.3 kmh E 1.1 mph1.8 kmh 30.07 in1018.3 mb 0.00 in0.0 mm 0.00 in0.0 mm 0.00 in0.0 mm
07:19 AM 3.7°F-15.7°C -0.6°F-18.1°C 82% 0.2 mph E0.3 kmh E 1.1 mph1.8 kmh 30.06 in1017.9 mb 0.00 in0.0 mm 0.00 in0.0 mm 0.00 in0.0 mm
07:24 AM 3.7°F-15.7°C -0.6°F-18.1°C 82% 0.4 mph E0.6 kmh E 1.1 mph1.8 kmh 30.06 in1017.9 mb 0.00 in0.0 mm 0.00 in0.0 mm 0.00 in0.0 mm
07:29 AM 3.9°F-15.6°C -0.6°F-18.1°C 82% Calm Calm -- 30.07 in1018.3 mb 0.00 in0.0 mm 0.00 in0.0 mm 0.00 in0.0 mm
07:34 AM 3.7°F-15.7°C -0.9°F-18.3°C 81% 0.9 mph E1.4 kmh E 2.2 mph3.5 kmh 30.07 in1018.3 mb 0.00 in0.0 mm 0.00 in0.0 mm 0.00 in0.0 mm
07:39 AM 3.9°F-15.6°C -0.8°F-18.2°C 81% 0.9 mph E1.4 kmh E 2.2 mph3.5 kmh 30.06 in1017.9 mb 0.00 in0.0 mm 0.00 in0.0 mm 0.00 in0.0 mm
07:44 AM 3.7°F-15.7°C -0.9°F-18.3°C 81% Calm Calm -- 30.06 in1017.9 mb 0.00 in0.0 mm 0.00 in0.0 mm 0.00 in0.0 mm
07:49 AM 3.7°F-15.7°C -0.9°F-18.3°C 81% 0.4 mph E0.6 kmh E 1.1 mph1.8 kmh 30.05 in1017.6 mb 0.00 in0.0 mm 0.00 in0.0 mm 0.00 in0.0 mm
07:54 AM 3.7°F-15.7°C -0.6°F-18.1°C 82% 0.7 mph ENE1.1 kmh ENE 1.1 mph1.8 kmh 30.06 in1017.9 mb 0.00 in0.0 mm 0.00 in0.0 mm 0.00 in0.0 mm
07:59 AM 3.9°F-15.6°C -0.8°F-18.2°C 81% 0.4 mph ENE0.6 kmh ENE 1.1 mph1.8 kmh 30.05 in1017.6 mb 0.00 in0.0 mm 0.00 in0.0 mm 0.00 in0.0 mm
08:04 AM 3.7°F-15.7°C -0.9°F-18.3°C 81% 0.2 mph ENE0.3 kmh ENE 1.1 mph1.8 kmh 30.03 in1016.9 mb 0.00 in0.0 mm 0.00 in0.0 mm 0.00 in0.0 mm
08:09 AM 3.7°F-15.7°C -0.6°F-18.1°C 82% Calm Calm -- 30.04 in1017.3 mb 0.00 in0.0 mm 0.00 in0.0 mm 0.00 in0.0 mm
08:14 AM 3.9°F-15.6°C -0.6°F-18.1°C 82% 1.1 mph ENE1.8 kmh ENE 2.2 mph3.5 kmh 30.04 in1017.3 mb 0.00 in0.0 mm 0.00 in0.0 mm 0.00 in0.0 mm
08:19 AM 3.9°F-15.6°C -0.6°F-18.1°C 82% 0.2 mph ENE0.3 kmh ENE 1.1 mph1.8 kmh 30.05 in1017.6 mb 0.00 in0.0 mm 0.00 in0.0 mm 0.00 in0.0 mm
08:24 AM 3.9°F-15.6°C -0.2°F-17.9°C 83% 0.9 mph E1.4 kmh E 2.2 mph3.5 kmh 30.07 in1018.3 mb 0.00 in0.0 mm 0.00 in0.0 mm 0.00 in0.0 mm
08:29 AM 4.1°F-15.5°C -0.4°F-18.0°C 82% Calm Calm -- 30.08 in1018.6 mb 0.00 in0.0 mm 0.00 in0.0 mm 0.00 in0.0 mm
08:34 AM 4.5°F-15.3°C -0.2°F-17.9°C 81% 0.7 mph E1.1 kmh E 1.1 mph1.8 kmh 30.09 in1019.0 mb 0.00 in0.0 mm 0.00 in0.0 mm 0.00 in0.0 mm
08:39 AM 4.5°F-15.3°C -0.4°F-18.0°C 80% Calm Calm -- 30.08 in1018.6 mb 0.00 in0.0 mm 0.00 in0.0 mm 0.00 in0.0 mm
08:44 AM 4.5°F-15.3°C -0.4°F-18.0°C 80% 2.0 mph E3.2 kmh E 2.2 mph3.5 kmh 30.07 in1018.3 mb 0.00 in0.0 mm 0.00 in0.0 mm 0.00 in0.0 mm
08:49 AM 4.1°F-15.5°C -0.8°F-18.2°C 80% 0.9 mph E1.4 kmh E 2.2 mph3.5 kmh 30.06 in1017.9 mb 0.00 in0.0 mm 0.00 in0.0 mm 0.00 in0.0 mm
08:54 AM 4.1°F-15.5°C -0.8°F-18.2°C 80% 1.8 mph E2.9 kmh E 2.2 mph3.5 kmh 30.06 in1017.9 mb 0.00 in0.0 mm 0.00 in0.0 mm 0.00 in0.0 mm
08:59 AM 3.9°F-15.6°C -0.9°F-18.3°C 80% 0.4 mph E0.6 kmh E 1.1 mph1.8 kmh 30.06 in1017.9 mb 0.00 in0.0 mm 0.00 in0.0 mm 0.00 in0.0 mm
09:03 AM 3.9°F-15.6°C -0.9°F-18.3°C 80% 0.7 mph E1.1 kmh E 1.1 mph1.8 kmh 30.06 in1017.9 mb 0.00 in0.0 mm 0.00 in0.0 mm 0.00 in0.0 mm
09:09 AM 4.3°F-15.4°C -0.8°F-18.2°C 79% Calm Calm -- 30.06 in1017.9 mb 0.00 in0.0 mm 0.00 in0.0 mm 0.00 in0.0 mm
09:14 AM 4.3°F-15.4°C -0.8°F-18.2°C 79% 0.9 mph E1.4 kmh E 1.1 mph1.8 kmh 30.06 in1017.9 mb 0.00 in0.0 mm 0.00 in0.0 mm 0.00 in0.0 mm
09:19 AM 4.5°F-15.3°C -0.9°F-18.3°C 78% 0.2 mph E0.3 kmh E 1.1 mph1.8 kmh 30.05 in1017.6 mb 0.00 in0.0 mm 0.00 in0.0 mm 0.00 in0.0 mm
09:24 AM 5.0°F-15.0°C -0.4°F-18.0°C 78% 0.4 mph E0.6 kmh E 1.1 mph1.8 kmh 30.06 in1017.9 mb 0.00 in0.0 mm 0.00 in0.0 mm 0.00 in0.0 mm
09:29 AM 4.8°F-15.1°C -0.9°F-18.3°C 77% 0.9 mph E1.4 kmh E 1.1 mph1.8 kmh 30.06 in1017.9 mb 0.00 in0.0 mm 0.00 in0.0 mm 0.00 in0.0 mm
09:34 AM 5.0°F-15.0°C -0.8°F-18.2°C 77% 0.2 mph E0.3 kmh E 1.1 mph1.8 kmh 30.05 in1017.6 mb 0.00 in0.0 mm 0.00 in0.0 mm 0.00 in0.0 mm
09:39 AM 5.2°F-14.9°C -0.8°F-18.2°C 76% 0.9 mph E1.4 kmh E 1.1 mph1.8 kmh 30.06 in1017.9 mb 0.00 in0.0 mm 0.00 in0.0 mm 0.00 in0.0 mm
09:44 AM 5.4°F-14.8°C -0.6°F-18.1°C 76% 0.9 mph E1.4 kmh E 1.1 mph1.8 kmh 30.06 in1017.9 mb 0.00 in0.0 mm 0.00 in0.0 mm 0.00 in0.0 mm
09:49 AM 6.1°F-14.4°C -0.2°F-17.9°C 75% 0.9 mph E1.4 kmh E 2.2 mph3.5 kmh 30.05 in1017.6 mb 0.00 in0.0 mm 0.00 in0.0 mm 0.00 in0.0 mm
09:54 AM 6.3°F-14.3°C -0.2°F-17.9°C 74% 0.9 mph E1.4 kmh E 2.2 mph3.5 kmh 30.05 in1017.6 mb 0.00 in0.0 mm 0.00 in0.0 mm 0.00 in0.0 mm
09:59 AM 6.1°F-14.4°C -0.4°F-18.0°C 74% 0.9 mph E1.4 kmh E 1.1 mph1.8 kmh 30.05 in1017.6 mb 0.00 in0.0 mm 0.00 in0.0 mm 0.00 in0.0 mm
10:04 AM 6.4°F-14.2°C 0.0°F-17.8°C 74% 0.2 mph E0.3 kmh E 1.1 mph1.8 kmh 30.05 in1017.6 mb 0.00 in0.0 mm 0.00 in0.0 mm 0.00 in0.0 mm
10:09 AM 6.3°F-14.3°C -0.6°F-18.1°C 73% 0.9 mph E1.4 kmh E 1.1 mph1.8 kmh 30.05 in1017.6 mb 0.00 in0.0 mm 0.00 in0.0 mm 0.00 in0.0 mm
10:14 AM 7.0°F-13.9°C 0.1°F-17.7°C 73% 1.3 mph E2.1 kmh E 2.2 mph3.5 kmh 30.05 in1017.6 mb 0.00 in0.0 mm 0.00 in0.0 mm 0.00 in0.0 mm
10:19 AM 7.7°F-13.5°C 0.5°F-17.5°C 72% 1.1 mph E1.8 kmh E 2.2 mph3.5 kmh 30.05 in1017.6 mb 0.00 in0.0 mm 0.00 in0.0 mm 0.00 in0.0 mm
10:24 AM 7.3°F-13.7°C 0.5°F-17.5°C 73% Calm Calm -- 30.05 in1017.6 mb 0.00 in0.0 mm 0.00 in0.0 mm 0.00 in0.0 mm
10:29 AM 8.2°F-13.2°C 0.5°F-17.5°C 70% 1.1 mph E1.8 kmh E 1.1 mph1.8 kmh 30.05 in1017.6 mb 0.00 in0.0 mm 0.00 in0.0 mm 0.00 in0.0 mm
10:34 AM 9.0°F-12.8°C 0.9°F-17.3°C 69% 1.8 mph E2.9 kmh E 3.4 mph5.5 kmh 30.04 in1017.3 mb 0.00 in0.0 mm 0.00 in0.0 mm 0.00 in0.0 mm
10:39 AM 8.6°F-13.0°C 0.1°F-17.7°C 68% 1.1 mph ENE1.8 kmh ENE 2.2 mph3.5 kmh 30.04 in1017.3 mb 0.00 in0.0 mm 0.00 in0.0 mm 0.00 in0.0 mm
10:44 AM 9.0°F-12.8°C 0.5°F-17.5°C 68% 1.3 mph E2.1 kmh E 3.4 mph5.5 kmh 30.04 in1017.3 mb 0.00 in0.0 mm 0.00 in0.0 mm 0.00 in0.0 mm
10:49 AM 8.6°F-13.0°C 0.9°F-17.3°C 70% 0.9 mph E1.4 kmh E 1.1 mph1.8 kmh 30.03 in1016.9 mb 0.00 in0.0 mm 0.00 in0.0 mm 0.00 in0.0 mm
10:54 AM 10.0°F-12.2°C 1.6°F-16.9°C 68% 0.2 mph ENE0.3 kmh ENE 1.1 mph1.8 kmh 30.03 in1016.9 mb 0.00 in0.0 mm 0.00 in0.0 mm 0.00 in0.0 mm
10:59 AM 9.0°F-12.8°C 0.5°F-17.5°C 68% 0.9 mph ENE1.4 kmh ENE 1.1 mph1.8 kmh 30.03 in1016.9 mb 0.00 in0.0 mm 0.00 in0.0 mm 0.00 in0.0 mm
11:04 AM 11.1°F-11.6°C 1.9°F-16.7°C 66% Calm Calm -- 30.02 in1016.6 mb 0.00 in0.0 mm 0.00 in0.0 mm 0.00 in0.0 mm
11:09 AM 9.1°F-12.7°C 0.3°F-17.6°C 67% 1.3 mph E2.1 kmh E 2.2 mph3.5 kmh 30.02 in1016.6 mb 0.00 in0.0 mm 0.00 in0.0 mm 0.00 in0.0 mm
11:14 AM 9.9°F-12.3°C 0.7°F-17.4°C 66% 0.2 mph E0.3 kmh E 1.1 mph1.8 kmh 30.02 in1016.6 mb 0.00 in0.0 mm 0.00 in0.0 mm 0.00 in0.0 mm
11:19 AM 10.0°F-12.2°C 0.9°F-17.3°C 66% 1.8 mph ENE2.9 kmh ENE 2.2 mph3.5 kmh 30.02 in1016.6 mb 0.00 in0.0 mm 0.00 in0.0 mm 0.00 in0.0 mm
11:24 AM 10.6°F-11.9°C 0.7°F-17.4°C 64% 0.2 mph E0.3 kmh E 1.1 mph1.8 kmh 30.03 in1016.9 mb 0.00 in0.0 mm 0.00 in0.0 mm 0.00 in0.0 mm
11:29 AM 11.7°F-11.3°C 1.4°F-17.0°C 63% 0.2 mph E0.3 kmh E 1.1 mph1.8 kmh 30.02 in1016.6 mb 0.00 in0.0 mm 0.00 in0.0 mm 0.00 in0.0 mm
11:34 AM 12.9°F-10.6°C 1.9°F-16.7°C 61% 0.4 mph E0.6 kmh E 1.1 mph1.8 kmh 30.03 in1016.9 mb 0.00 in0.0 mm 0.00 in0.0 mm 0.00 in0.0 mm
11:39 AM 11.1°F-11.6°C 0.9°F-17.3°C 63% Calm Calm -- 30.03 in1016.9 mb 0.00 in0.0 mm 0.00 in0.0 mm 0.00 in0.0 mm
11:44 AM 9.9°F-12.3°C 0.7°F-17.4°C 66% 0.2 mph ENE0.3 kmh ENE 1.1 mph1.8 kmh 30.02 in1016.6 mb 0.00 in0.0 mm 0.00 in0.0 mm 0.00 in0.0 mm
11:49 AM 10.8°F-11.8°C 1.9°F-16.7°C 67% 2.2 mph E3.5 kmh E 4.5 mph7.2 kmh 30.02 in1016.6 mb 0.00 in0.0 mm 0.00 in0.0 mm 0.00 in0.0 mm
11:54 AM 10.8°F-11.8°C 1.2°F-17.1°C 65% 1.3 mph E2.1 kmh E 2.2 mph3.5 kmh 30.02 in1016.6 mb 0.00 in0.0 mm 0.00 in0.0 mm 0.00 in0.0 mm
11:59 AM 11.7°F-11.3°C 2.1°F-16.6°C 65% 1.1 mph ENE1.8 kmh ENE 2.2 mph3.5 kmh 30.02 in1016.6 mb 0.00 in0.0 mm 0.00 in0.0 mm 0.00 in0.0 mm
12:04 PM 10.0°F-12.2°C 0.9°F-17.3°C 66% 0.7 mph N1.1 kmh N 2.2 mph3.5 kmh 30.02 in1016.6 mb 0.00 in0.0 mm 0.00 in0.0 mm 0.00 in0.0 mm
12:09 PM 10.6°F-11.9°C 1.4°F-17.0°C 66% 1.3 mph NE2.1 kmh NE 2.2 mph3.5 kmh 30.01 in1016.3 mb 0.00 in0.0 mm 0.00 in0.0 mm 0.00 in0.0 mm
12:14 PM 9.5°F-12.5°C 1.0°F-17.2°C 68% 0.2 mph E0.3 kmh E 1.1 mph1.8 kmh 30.01 in1016.3 mb 0.00 in0.0 mm 0.00 in0.0 mm 0.00 in0.0 mm
12:19 PM 10.0°F-12.2°C 1.2°F-17.1°C 67% 0.2 mph E0.3 kmh E 1.1 mph1.8 kmh 30.00 in1015.9 mb 0.00 in0.0 mm 0.00 in0.0 mm 0.00 in0.0 mm
12:24 PM 9.3°F-12.6°C 1.2°F-17.1°C 69% 0.4 mph ENE0.6 kmh ENE 2.2 mph3.5 kmh 30.00 in1015.9 mb 0.00 in0.0 mm 0.00 in0.0 mm 0.00 in0.0 mm
12:29 PM 9.5°F-12.5°C 1.0°F-17.2°C 68% 1.3 mph ENE2.1 kmh ENE 2.2 mph3.5 kmh 29.99 in1015.6 mb 0.00 in0.0 mm 0.00 in0.0 mm 0.00 in0.0 mm
12:34 PM 9.5°F-12.5°C 0.7°F-17.4°C 67% 0.9 mph E1.4 kmh E 1.1 mph1.8 kmh 29.98 in1015.2 mb 0.00 in0.0 mm 0.00 in0.0 mm 0.00 in0.0 mm
12:39 PM 9.5°F-12.5°C 0.7°F-17.4°C 67% 0.2 mph E0.3 kmh E 1.1 mph1.8 kmh 29.99 in1015.6 mb 0.00 in0.0 mm 0.00 in0.0 mm 0.00 in0.0 mm
12:44 PM 9.5°F-12.5°C 0.3°F-17.6°C 66% Calm Calm -- 29.99 in1015.6 mb 0.00 in0.0 mm 0.00 in0.0 mm 0.00 in0.0 mm
12:49 PM 10.2°F-12.1°C 1.8°F-16.8°C 68% Calm Calm -- 29.98 in1015.2 mb 0.00 in0.0 mm 0.00 in0.0 mm 0.00 in0.0 mm
12:54 PM 10.4°F-12.0°C 0.9°F-17.3°C 65% Calm Calm -- 29.98 in1015.2 mb 0.00 in0.0 mm 0.00 in0.0 mm 0.00 in0.0 mm
12:59 PM 10.4°F-12.0°C 2.1°F-16.6°C 69% 0.4 mph E0.6 kmh E 1.1 mph1.8 kmh 29.98 in1015.2 mb 0.00 in0.0 mm 0.00 in0.0 mm 0.00 in0.0 mm
01:04 PM 10.8°F-11.8°C 1.6°F-16.9°C 66% Calm Calm -- 29.97 in1014.9 mb 0.00 in0.0 mm 0.00 in0.0 mm 0.00 in0.0 mm
01:09 PM 11.1°F-11.6°C 1.2°F-17.1°C 64% Calm Calm -- 29.97 in1014.9 mb 0.00 in0.0 mm 0.00 in0.0 mm 0.00 in0.0 mm
01:14 PM 10.9°F-11.7°C 1.8°F-16.8°C 66% Calm Calm -- 29.97 in1014.9 mb 0.00 in0.0 mm 0.00 in0.0 mm 0.00 in0.0 mm
01:19 PM 10.9°F-11.7°C 1.8°F-16.8°C 66% 0.4 mph ESE0.6 kmh ESE 1.1 mph1.8 kmh 29.96 in1014.6 mb 0.00 in0.0 mm 0.00 in0.0 mm 0.00 in0.0 mm
01:24 PM 10.4°F-12.0°C 1.2°F-17.1°C 66% 0.7 mph ESE1.1 kmh ESE 1.1 mph1.8 kmh 29.96 in1014.6 mb 0.00 in0.0 mm 0.00 in0.0 mm 0.00 in0.0 mm
01:29 PM 10.8°F-11.8°C 0.9°F-17.3°C 64% 0.9 mph ESE1.4 kmh ESE 1.1 mph1.8 kmh 29.96 in1014.6 mb 0.00 in0.0 mm 0.00 in0.0 mm 0.00 in0.0 mm
01:34 PM 10.2°F-12.1°C 0.7°F-17.4°C 65% Calm Calm -- 29.95 in1014.2 mb 0.00 in0.0 mm 0.00 in0.0 mm 0.00 in0.0 mm
01:39 PM 11.3°F-11.5°C 1.4°F-17.0°C 64% 0.2 mph E0.3 kmh E 1.1 mph1.8 kmh 29.95 in1014.2 mb 0.00 in0.0 mm 0.00 in0.0 mm 0.00 in0.0 mm
01:44 PM 11.1°F-11.6°C 1.2°F-17.1°C 64% Calm Calm -- 29.95 in1014.2 mb 0.00 in0.0 mm 0.00 in0.0 mm 0.00 in0.0 mm
01:49 PM 11.1°F-11.6°C 1.6°F-16.9°C 65% 1.8 mph SE2.9 kmh SE 2.2 mph3.5 kmh 29.94 in1013.9 mb 0.00 in0.0 mm 0.00 in0.0 mm 0.00 in0.0 mm
01:54 PM 11.5°F-11.4°C 1.9°F-16.7°C 65% 0.2 mph ESE0.3 kmh ESE 1.1 mph1.8 kmh 29.94 in1013.9 mb 0.00 in0.0 mm 0.00 in0.0 mm 0.00 in0.0 mm
01:59 PM 11.7°F-11.3°C 1.4°F-17.0°C 63% Calm Calm -- 29.94 in1013.9 mb 0.00 in0.0 mm 0.00 in0.0 mm 0.00 in0.0 mm
02:04 PM 11.1°F-11.6°C 1.6°F-16.9°C 65% Calm Calm -- 29.94 in1013.9 mb 0.00 in0.0 mm 0.00 in0.0 mm 0.00 in0.0 mm
02:09 PM 12.2°F-11.0°C 2.3°F-16.5°C 64% Calm Calm -- 29.94 in1013.9 mb 0.00 in0.0 mm 0.00 in0.0 mm 0.00 in0.0 mm
02:14 PM 12.6°F-10.8°C 2.3°F-16.5°C 63% 0.7 mph E1.1 kmh E 1.1 mph1.8 kmh 29.94 in1013.9 mb 0.00 in0.0 mm 0.00 in0.0 mm 0.00 in0.0 mm
02:19 PM 11.1°F-11.6°C 1.6°F-16.9°C 65% Calm Calm -- 29.94 in1013.9 mb 0.00 in0.0 mm 0.00 in0.0 mm 0.00 in0.0 mm
02:24 PM 11.3°F-11.5°C 2.1°F-16.6°C 66% Calm Calm -- 29.94 in1013.9 mb 0.00 in0.0 mm 0.00 in0.0 mm 0.00 in0.0 mm
02:29 PM 11.8°F-11.2°C 2.3°F-16.5°C 65% 0.2 mph E0.3 kmh E 1.1 mph1.8 kmh 29.94 in1013.9 mb 0.00 in0.0 mm 0.00 in0.0 mm 0.00 in0.0 mm
02:34 PM 12.0°F-11.1°C 1.8°F-16.8°C 63% 0.9 mph E1.4 kmh E 1.1 mph1.8 kmh 29.94 in1013.9 mb 0.00 in0.0 mm 0.00 in0.0 mm 0.00 in0.0 mm
02:39 PM 11.8°F-11.2°C 2.3°F-16.5°C 65% Calm Calm -- 29.94 in1013.9 mb 0.00 in0.0 mm 0.00 in0.0 mm 0.00 in0.0 mm
02:44 PM 11.3°F-11.5°C 1.4°F-17.0°C 64% Calm Calm -- 29.94 in1013.9 mb 0.00 in0.0 mm 0.00 in0.0 mm 0.00 in0.0 mm
02:49 PM 11.8°F-11.2°C 2.8°F-16.2°C 67% Calm Calm -- 29.94 in1013.9 mb 0.00 in0.0 mm 0.00 in0.0 mm 0.00 in0.0 mm
02:54 PM 12.4°F-10.9°C 2.1°F-16.6°C 63% 0.9 mph E1.4 kmh E 1.1 mph1.8 kmh 29.94 in1013.9 mb 0.00 in0.0 mm 0.00 in0.0 mm 0.00 in0.0 mm
02:59 PM 12.6°F-10.8°C 2.7°F-16.3°C 64% 0.2 mph ESE0.3 kmh ESE 1.1 mph1.8 kmh 29.94 in1013.9 mb 0.00 in0.0 mm 0.00 in0.0 mm 0.00 in0.0 mm
03:04 PM 12.7°F-10.7°C 3.2°F-16.0°C 65% Calm Calm -- 29.93 in1013.5 mb 0.00 in0.0 mm 0.00 in0.0 mm 0.00 in0.0 mm
03:09 PM 11.8°F-11.2°C 1.6°F-16.9°C 63% 1.3 mph ENE2.1 kmh ENE 2.2 mph3.5 kmh 29.93 in1013.5 mb 0.00 in0.0 mm 0.00 in0.0 mm 0.00 in0.0 mm
03:14 PM 12.2°F-11.0°C 1.9°F-16.7°C 63% 0.7 mph ENE1.1 kmh ENE 1.1 mph1.8 kmh 29.93 in1013.5 mb 0.00 in0.0 mm 0.00 in0.0 mm 0.00 in0.0 mm
03:19 PM 11.8°F-11.2°C 2.3°F-16.5°C 65% Calm Calm -- 29.93 in1013.5 mb 0.00 in0.0 mm 0.00 in0.0 mm 0.00 in0.0 mm
03:24 PM 12.0°F-11.1°C 2.1°F-16.6°C 64% 1.1 mph E1.8 kmh E 1.1 mph1.8 kmh 29.92 in1013.2 mb 0.00 in0.0 mm 0.00 in0.0 mm 0.00 in0.0 mm
03:29 PM 11.8°F-11.2°C 1.6°F-16.9°C 63% Calm Calm -- 29.93 in1013.5 mb 0.00 in0.0 mm 0.00 in0.0 mm 0.00 in0.0 mm
03:34 PM 11.8°F-11.2°C 1.9°F-16.7°C 64% Calm Calm -- 29.93 in1013.5 mb 0.00 in0.0 mm 0.00 in0.0 mm 0.00 in0.0 mm
03:39 PM 12.2°F-11.0°C 1.9°F-16.7°C 63% 0.9 mph SE1.4 kmh SE 1.1 mph1.8 kmh 29.93 in1013.5 mb 0.00 in0.0 mm 0.00 in0.0 mm 0.00 in0.0 mm
03:44 PM 12.0°F-11.1°C 1.8°F-16.8°C 63% Calm Calm -- 29.92 in1013.2 mb 0.00 in0.0 mm 0.00 in0.0 mm 0.00 in0.0 mm
03:49 PM 12.0°F-11.1°C 1.8°F-16.8°C 63% 0.9 mph E1.4 kmh E 1.1 mph1.8 kmh 29.93 in1013.5 mb 0.00 in0.0 mm 0.00 in0.0 mm 0.00 in0.0 mm
03:54 PM 12.0°F-11.1°C 1.8°F-16.8°C 63% 0.4 mph E0.6 kmh E 1.1 mph1.8 kmh 29.93 in1013.5 mb 0.00 in0.0 mm 0.00 in0.0 mm 0.00 in0.0 mm
03:59 PM 12.2°F-11.0°C 2.3°F-16.5°C 64% Calm Calm -- 29.91 in1012.9 mb 0.00 in0.0 mm 0.00 in0.0 mm 0.00 in0.0 mm
04:04 PM 12.6°F-10.8°C 2.3°F-16.5°C 63% Calm Calm -- 29.92 in1013.2 mb 0.00 in0.0 mm 0.00 in0.0 mm 0.00 in0.0 mm
04:09 PM 12.4°F-10.9°C 2.5°F-16.4°C 64% Calm Calm -- 29.92 in1013.2 mb 0.00 in0.0 mm 0.00 in0.0 mm 0.00 in0.0 mm
04:14 PM 12.6°F-10.8°C 1.9°F-16.7°C 62% Calm Calm -- 29.92 in1013.2 mb 0.00 in0.0 mm 0.00 in0.0 mm 0.00 in0.0 mm
04:19 PM 12.2°F-11.0°C 1.2°F-17.1°C 61% Calm Calm -- 29.91 in1012.9 mb 0.00 in0.0 mm 0.00 in0.0 mm 0.00 in0.0 mm
04:24 PM 12.0°F-11.1°C 1.0°F-17.2°C 61% Calm Calm -- 29.92 in1013.2 mb 0.00 in0.0 mm 0.00 in0.0 mm 0.00 in0.0 mm
04:29 PM 12.2°F-11.0°C 2.3°F-16.5°C 64% Calm Calm -- 29.92 in1013.2 mb 0.00 in0.0 mm 0.00 in0.0 mm 0.00 in0.0 mm
04:34 PM 12.6°F-10.8°C 2.7°F-16.3°C 64% 0.2 mph E0.3 kmh E 1.1 mph1.8 kmh 29.92 in1013.2 mb 0.00 in0.0 mm 0.00 in0.0 mm 0.00 in0.0 mm
04:39 PM 12.6°F-10.8°C 2.7°F-16.3°C 64% Calm Calm -- 29.92 in1013.2 mb 0.00 in0.0 mm 0.00 in0.0 mm 0.00 in0.0 mm
04:44 PM 12.2°F-11.0°C 2.3°F-16.5°C 64% Calm Calm -- 29.92 in1013.2 mb 0.00 in0.0 mm 0.00 in0.0 mm 0.00 in0.0 mm
04:49 PM 12.0°F-11.1°C 2.1°F-16.6°C 64% Calm Calm -- 29.92 in1013.2 mb 0.00 in0.0 mm 0.00 in0.0 mm 0.00 in0.0 mm
04:54 PM 11.8°F-11.2°C 1.9°F-16.7°C 64% Calm Calm -- 29.91 in1012.9 mb 0.00 in0.0 mm 0.00 in0.0 mm 0.00 in0.0 mm
04:59 PM 12.0°F-11.1°C 2.1°F-16.6°C 64% Calm Calm -- 29.93 in1013.5 mb 0.00 in0.0 mm 0.00 in0.0 mm 0.00 in0.0 mm
05:04 PM 12.0°F-11.1°C 2.1°F-16.6°C 64% Calm Calm -- 29.92 in1013.2 mb 0.00 in0.0 mm 0.00 in0.0 mm 0.00 in0.0 mm
05:09 PM 11.8°F-11.2°C 1.6°F-16.9°C 63% Calm Calm -- 29.92 in1013.2 mb 0.00 in0.0 mm 0.00 in0.0 mm 0.00 in0.0 mm
05:14 PM 12.2°F-11.0°C 1.9°F-16.7°C 63% Calm Calm -- 29.92 in1013.2 mb 0.00 in0.0 mm 0.00 in0.0 mm 0.00 in0.0 mm
05:19 PM 11.8°F-11.2°C 1.6°F-16.9°C 63% Calm Calm -- 29.92 in1013.2 mb 0.00 in0.0 mm 0.00 in0.0 mm 0.00 in0.0 mm
05:24 PM 11.7°F-11.3°C 1.8°F-16.8°C 64% Calm Calm -- 29.93 in1013.5 mb 0.00 in0.0 mm 0.00 in0.0 mm 0.00 in0.0 mm
05:29 PM 11.5°F-11.4°C 1.9°F-16.7°C 65% Calm Calm -- 29.93 in1013.5 mb 0.00 in0.0 mm 0.00 in0.0 mm 0.00 in0.0 mm
05:34 PM 10.9°F-11.7°C 2.3°F-16.5°C 68% Calm Calm -- 29.93 in1013.5 mb 0.00 in0.0 mm 0.00 in0.0 mm 0.00 in0.0 mm
05:39 PM 10.8°F-11.8°C 1.9°F-16.7°C 67% Calm Calm -- 29.93 in1013.5 mb 0.00 in0.0 mm 0.00 in0.0 mm 0.00 in0.0 mm
05:44 PM 10.6°F-11.9°C 1.9°F-16.7°C 68% Calm Calm -- 29.93 in1013.5 mb 0.00 in0.0 mm 0.00 in0.0 mm 0.00 in0.0 mm
05:49 PM 10.0°F-12.2°C 2.5°F-16.4°C 71% Calm Calm -- 29.93 in1013.5 mb 0.00 in0.0 mm 0.00 in0.0 mm 0.00 in0.0 mm
05:54 PM 9.3°F-12.6°C 1.8°F-16.8°C 71% Calm Calm -- 29.93 in1013.5 mb 0.00 in0.0 mm 0.00 in0.0 mm 0.00 in0.0 mm
05:59 PM 9.0°F-12.8°C 1.8°F-16.8°C 72% Calm Calm -- 29.93 in1013.5 mb 0.00 in0.0 mm 0.00 in0.0 mm 0.00 in0.0 mm
06:04 PM 8.4°F-13.1°C 2.1°F-16.6°C 75% Calm Calm -- 29.93 in1013.5 mb 0.00 in0.0 mm 0.00 in0.0 mm 0.00 in0.0 mm
06:09 PM 7.9°F-13.4°C 1.2°F-17.1°C 74% Calm Calm -- 29.92 in1013.2 mb 0.00 in0.0 mm 0.00 in0.0 mm 0.00 in0.0 mm
06:14 PM 7.5°F-13.6°C 0.9°F-17.3°C 74% Calm Calm -- 29.92 in1013.2 mb 0.00 in0.0 mm 0.00 in0.0 mm 0.00 in0.0 mm
06:19 PM 6.8°F-14.0°C 0.1°F-17.7°C 74% Calm Calm -- 29.93 in1013.5 mb 0.00 in0.0 mm 0.00 in0.0 mm 0.00 in0.0 mm
06:24 PM 5.5°F-14.7°C -0.4°F-18.0°C 76% Calm Calm -- 29.93 in1013.5 mb 0.00 in0.0 mm 0.00 in0.0 mm 0.00 in0.0 mm
06:29 PM 4.3°F-15.4°C -0.2°F-17.9°C 82% Calm Calm -- 29.92 in1013.2 mb 0.00 in0.0 mm 0.00 in0.0 mm 0.00 in0.0 mm
06:34 PM 5.2°F-14.9°C 1.4°F-17.0°C 84% Calm Calm -- 29.93 in1013.5 mb 0.00 in0.0 mm 0.00 in0.0 mm 0.00 in0.0 mm
06:39 PM 4.8°F-15.1°C 0.7°F-17.4°C 83% Calm Calm -- 29.92 in1013.2 mb 0.00 in0.0 mm 0.00 in0.0 mm 0.00 in0.0 mm
06:44 PM 4.6°F-15.2°C -0.4°F-18.0°C 79% Calm Calm -- 29.93 in1013.5 mb 0.00 in0.0 mm 0.00 in0.0 mm 0.00 in0.0 mm
06:49 PM 3.2°F-16.0°C -1.1°F-18.4°C 82% Calm Calm -- 29.93 in1013.5 mb 0.00 in0.0 mm 0.00 in0.0 mm 0.00 in0.0 mm
06:54 PM 3.4°F-15.9°C -0.8°F-18.2°C 83% Calm Calm -- 29.93 in1013.5 mb 0.00 in0.0 mm 0.00 in0.0 mm 0.00 in0.0 mm
06:59 PM 4.1°F-15.5°C -0.6°F-18.1°C 81% Calm Calm -- 29.93 in1013.5 mb 0.00 in0.0 mm 0.00 in0.0 mm 0.00 in0.0 mm
07:04 PM 4.5°F-15.3°C 0.0°F-17.8°C 82% Calm Calm -- 29.93 in1013.5 mb 0.00 in0.0 mm 0.00 in0.0 mm 0.00 in0.0 mm
07:09 PM 4.5°F-15.3°C -0.2°F-17.9°C 81% Calm Calm -- 29.93 in1013.5 mb 0.00 in0.0 mm 0.00 in0.0 mm 0.00 in0.0 mm
07:14 PM 2.8°F-16.2°C -1.5°F-18.6°C 82% Calm Calm -- 29.94 in1013.9 mb 0.00 in0.0 mm 0.00 in0.0 mm 0.00 in0.0 mm
07:19 PM 2.8°F-16.2°C -0.9°F-18.3°C 84% Calm Calm -- 29.94 in1013.9 mb 0.00 in0.0 mm 0.00 in0.0 mm 0.00 in0.0 mm
07:24 PM 3.2°F-16.0°C -0.6°F-18.1°C 84% Calm Calm -- 29.94 in1013.9 mb 0.00 in0.0 mm 0.00 in0.0 mm 0.00 in0.0 mm
07:29 PM 3.4°F-15.9°C -0.2°F-17.9°C 85% Calm Calm -- 29.94 in1013.9 mb 0.00 in0.0 mm 0.00 in0.0 mm 0.00 in0.0 mm
07:34 PM 2.1°F-16.6°C -2.0°F-18.9°C 83% Calm Calm -- 29.94 in1013.9 mb 0.00 in0.0 mm 0.00 in0.0 mm 0.00 in0.0 mm
07:39 PM 2.1°F-16.6°C -1.3°F-18.5°C 85% Calm Calm -- 29.94 in1013.9 mb 0.00 in0.0 mm 0.00 in0.0 mm 0.00 in0.0 mm
07:44 PM 1.8°F-16.8°C -1.7°F-18.7°C 85% Calm Calm -- 29.94 in1013.9 mb 0.00 in0.0 mm 0.00 in0.0 mm 0.00 in0.0 mm
07:49 PM 1.8°F-16.8°C -1.7°F-18.7°C 85% 0.2 mph E0.3 kmh E 1.1 mph1.8 kmh 29.94 in1013.9 mb 0.00 in0.0 mm 0.00 in0.0 mm 0.00 in0.0 mm
07:54 PM 1.8°F-16.8°C -1.7°F-18.7°C 85% Calm Calm -- 29.93 in1013.5 mb 0.00 in0.0 mm 0.00 in0.0 mm 0.00 in0.0 mm
07:59 PM 2.7°F-16.3°C -0.9°F-18.3°C 85% Calm Calm -- 29.94 in1013.9 mb 0.00 in0.0 mm 0.00 in0.0 mm 0.00 in0.0 mm
08:04 PM 2.3°F-16.5°C -1.8°F-18.8°C 83% Calm Calm -- 29.94 in1013.9 mb 0.00 in0.0 mm 0.00 in0.0 mm 0.00 in0.0 mm
08:09 PM 1.8°F-16.8°C -2.4°F-19.1°C 83% Calm Calm -- 29.94 in1013.9 mb 0.00 in0.0 mm 0.00 in0.0 mm 0.00 in0.0 mm
08:14 PM 2.1°F-16.6°C -1.3°F-18.5°C 85% Calm Calm -- 29.94 in1013.9 mb 0.00 in0.0 mm 0.00 in0.0 mm 0.00 in0.0 mm
08:19 PM 2.3°F-16.5°C -1.1°F-18.4°C 85% Calm Calm -- 29.94 in1013.9 mb 0.00 in0.0 mm 0.00 in0.0 mm 0.00 in0.0 mm
08:24 PM 1.6°F-16.9°C -1.8°F-18.8°C 85% Calm Calm -- 29.95 in1014.2 mb 0.00 in0.0 mm 0.00 in0.0 mm 0.00 in0.0 mm
08:29 PM 1.4°F-17.0°C -2.0°F-18.9°C 85% Calm Calm -- 29.94 in1013.9 mb 0.00 in0.0 mm 0.00 in0.0 mm 0.00 in0.0 mm
08:34 PM 0.7°F-17.4°C -2.6°F-19.2°C 86% Calm Calm -- 29.95 in1014.2 mb 0.00 in0.0 mm 0.00 in0.0 mm 0.00 in0.0 mm
08:39 PM 0.9°F-17.3°C -2.2°F-19.0°C 87% Calm Calm -- 29.94 in1013.9 mb 0.00 in0.0 mm 0.00 in0.0 mm 0.00 in0.0 mm
08:44 PM 0.7°F-17.4°C -2.4°F-19.1°C 87% Calm Calm -- 29.94 in1013.9 mb 0.00 in0.0 mm 0.00 in0.0 mm 0.00 in0.0 mm
08:49 PM 0.9°F-17.3°C -2.2°F-19.0°C 87% Calm Calm -- 29.95 in1014.2 mb 0.00 in0.0 mm 0.00 in0.0 mm 0.00 in0.0 mm
08:54 PM 0.7°F-17.4°C -2.4°F-19.1°C 87% Calm Calm -- 29.95 in1014.2 mb 0.00 in0.0 mm 0.00 in0.0 mm 0.00 in0.0 mm
08:59 PM 1.0°F-17.2°C -2.2°F-19.0°C 86% Calm Calm -- 29.94 in1013.9 mb 0.00 in0.0 mm 0.00 in0.0 mm 0.00 in0.0 mm
09:04 PM 1.0°F-17.2°C -2.2°F-19.0°C 86% Calm Calm -- 29.94 in1013.9 mb 0.00 in0.0 mm 0.00 in0.0 mm 0.00 in0.0 mm
09:09 PM 1.4°F-17.0°C -1.8°F-18.8°C 86% Calm Calm -- 29.95 in1014.2 mb 0.00 in0.0 mm 0.00 in0.0 mm 0.00 in0.0 mm
09:14 PM 1.4°F-17.0°C -1.8°F-18.8°C 86% Calm Calm -- 29.94 in1013.9 mb 0.00 in0.0 mm 0.00 in0.0 mm 0.00 in0.0 mm
09:19 PM 0.3°F-17.6°C -3.5°F-19.7°C 84% Calm Calm -- 29.94 in1013.9 mb 0.00 in0.0 mm 0.00 in0.0 mm 0.00 in0.0 mm
09:24 PM -0.4°F-18.0°C -3.6°F-19.8°C 86% Calm Calm -- 29.95 in1014.2 mb 0.00 in0.0 mm 0.00 in0.0 mm 0.00 in0.0 mm
09:29 PM -0.6°F-18.1°C -3.8°F-19.9°C 86% Calm Calm -- 29.94 in1013.9 mb 0.00 in0.0 mm 0.00 in0.0 mm 0.00 in0.0 mm
09:34 PM -0.6°F-18.1°C -3.8°F-19.9°C 86% Calm Calm -- 29.94 in1013.9 mb 0.00 in0.0 mm 0.00 in0.0 mm 0.00 in0.0 mm
09:39 PM -0.6°F-18.1°C -3.8°F-19.9°C 86% Calm Calm -- 29.94 in1013.9 mb 0.00 in0.0 mm 0.00 in0.0 mm 0.00 in0.0 mm
09:44 PM -0.4°F-18.0°C -3.6°F-19.8°C 86% Calm Calm -- 29.94 in1013.9 mb 0.00 in0.0 mm 0.00 in0.0 mm 0.00 in0.0 mm
09:49 PM -0.2°F-17.9°C -3.5°F-19.7°C 86% Calm Calm -- 29.94 in1013.9 mb 0.00 in0.0 mm 0.00 in0.0 mm 0.00 in0.0 mm
09:54 PM -0.2°F-17.9°C -3.6°F-19.8°C 85% Calm Calm -- 29.94 in1013.9 mb 0.00 in0.0 mm 0.00 in0.0 mm 0.00 in0.0 mm
09:59 PM 0.0°F-17.8°C -3.3°F-19.6°C 86% Calm Calm -- 29.94 in1013.9 mb 0.00 in0.0 mm 0.00 in0.0 mm 0.00 in0.0 mm
10:04 PM 0.7°F-17.4°C -2.6°F-19.2°C 86% Calm Calm -- 29.94 in1013.9 mb 0.00 in0.0 mm 0.00 in0.0 mm 0.00 in0.0 mm
10:09 PM 0.9°F-17.3°C -2.4°F-19.1°C 86% Calm Calm -- 29.94 in1013.9 mb 0.00 in0.0 mm 0.00 in0.0 mm 0.00 in0.0 mm
10:14 PM 0.9°F-17.3°C -2.6°F-19.2°C 85% Calm Calm -- 29.94 in1013.9 mb 0.00 in0.0 mm 0.00 in0.0 mm 0.00 in0.0 mm
10:19 PM 0.7°F-17.4°C -2.7°F-19.3°C 85% Calm Calm -- 29.94 in1013.9 mb 0.00 in0.0 mm 0.00 in0.0 mm 0.00 in0.0 mm
10:24 PM -0.8°F-18.2°C -4.2°F-20.1°C 85% Calm Calm -- 29.93 in1013.5 mb 0.00 in0.0 mm 0.00 in0.0 mm 0.00 in0.0 mm
10:29 PM -0.4°F-18.0°C -3.6°F-19.8°C 86% Calm Calm -- 29.93 in1013.5 mb 0.00 in0.0 mm 0.00 in0.0 mm 0.00 in0.0 mm
10:34 PM 0.0°F-17.8°C -3.3°F-19.6°C 86% Calm Calm -- 29.94 in1013.9 mb 0.00 in0.0 mm 0.00 in0.0 mm 0.00 in0.0 mm
10:39 PM 0.3°F-17.6°C -3.1°F-19.5°C 85% Calm Calm -- 29.93 in1013.5 mb 0.00 in0.0 mm 0.00 in0.0 mm 0.00 in0.0 mm
10:44 PM 0.3°F-17.6°C -3.1°F-19.5°C 85% Calm Calm -- 29.92 in1013.2 mb 0.00 in0.0 mm 0.00 in0.0 mm 0.00 in0.0 mm
10:49 PM 0.3°F-17.6°C -2.9°F-19.4°C 86% Calm Calm -- 29.92 in1013.2 mb 0.00 in0.0 mm 0.00 in0.0 mm 0.00 in0.0 mm
10:54 PM 0.5°F-17.5°C -2.7°F-19.3°C 86% Calm Calm -- 29.91 in1012.9 mb 0.00 in0.0 mm 0.00 in0.0 mm 0.00 in0.0 mm
10:59 PM 0.7°F-17.4°C -2.6°F-19.2°C 86% Calm Calm -- 29.91 in1012.9 mb 0.00 in0.0 mm 0.00 in0.0 mm 0.00 in0.0 mm
11:04 PM 0.7°F-17.4°C -2.4°F-19.1°C 87% Calm Calm -- 29.91 in1012.9 mb 0.00 in0.0 mm 0.00 in0.0 mm 0.00 in0.0 mm
11:09 PM 1.0°F-17.2°C -2.2°F-19.0°C 86% Calm Calm -- 29.91 in1012.9 mb 0.00 in0.0 mm 0.00 in0.0 mm 0.00 in0.0 mm
11:14 PM 1.2°F-17.1°C -2.0°F-18.9°C 86% Calm Calm -- 29.91 in1012.9 mb 0.00 in0.0 mm 0.00 in0.0 mm 0.00 in0.0 mm
11:19 PM 1.4°F-17.0°C -2.0°F-18.9°C 85% Calm Calm -- 29.91 in1012.9 mb 0.00 in0.0 mm 0.00 in0.0 mm 0.00 in0.0 mm
11:24 PM 1.2°F-17.1°C -2.0°F-18.9°C 86% Calm Calm -- 29.92 in1013.2 mb 0.00 in0.0 mm 0.00 in0.0 mm 0.00 in0.0 mm
11:29 PM 1.0°F-17.2°C -2.4°F-19.1°C 85% Calm Calm -- 29.91 in1012.9 mb 0.00 in0.0 mm 0.00 in0.0 mm 0.00 in0.0 mm
11:34 PM 1.2°F-17.1°C -2.0°F-18.9°C 86% Calm Calm -- 29.90 in1012.5 mb 0.00 in0.0 mm 0.00 in0.0 mm 0.00 in0.0 mm
11:39 PM 1.2°F-17.1°C -2.2°F-19.0°C 85% Calm Calm -- 29.90 in1012.5 mb 0.00 in0.0 mm 0.00 in0.0 mm 0.00 in0.0 mm
11:44 PM 1.2°F-17.1°C -2.2°F-19.0°C 85% Calm Calm -- 29.91 in1012.9 mb 0.00 in0.0 mm 0.00 in0.0 mm 0.00 in0.0 mm
11:49 PM 0.7°F-17.4°C -3.1°F-19.5°C 84% Calm Calm -- 29.91 in1012.9 mb 0.00 in0.0 mm 0.00 in0.0 mm 0.00 in0.0 mm
11:54 PM 0.5°F-17.5°C -2.7°F-19.3°C 86% Calm Calm -- 29.90 in1012.5 mb 0.00 in0.0 mm 0.00 in0.0 mm 0.00 in0.0 mm
11:59 PM 1.0°F-17.2°C -2.4°F-19.1°C 85% Calm Calm -- 29.90 in1012.5 mb 0.00 in0.0 mm 0.00 in0.0 mm 0.00 in0.0 mm